createdAt,value
2022-08-07T00:00:23.519Z,98824.50
2022-08-07T00:02:36.883Z,98833.19
2022-08-07T00:03:52.844Z,98826.06
2022-08-07T00:05:29.353Z,98820.66
2022-08-07T00:07:05.224Z,98825.22
2022-08-07T00:08:44.436Z,98822.69
2022-08-07T00:10:25.912Z,98825.66
2022-08-07T00:12:00.704Z,98831.03
2022-08-07T00:13:34.109Z,98815.03
2022-08-07T00:15:13.884Z,98828.63
2022-08-07T00:16:48.320Z,98815.56
2022-08-07T00:18:24.472Z,98830.31
2022-08-07T00:20:03.198Z,98826.34
2022-08-07T00:21:55.970Z,98832.34
2022-08-07T00:23:31.377Z,98836.56
2022-08-07T00:25:07.355Z,98834.00
2022-08-07T00:27:06.275Z,98842.91
2022-08-07T00:28:41.815Z,98832.25
2022-08-07T00:30:26.381Z,98838.22
2022-08-07T00:32:01.959Z,98829.97
2022-08-07T00:33:36.126Z,98840.28
2022-08-07T00:35:11.026Z,98841.56
2022-08-07T00:36:50.195Z,98840.00
2022-08-07T00:38:31.093Z,98840.13
2022-08-07T00:40:06.317Z,98844.94
2022-08-07T00:41:53.847Z,98846.34
2022-08-07T00:44:01.889Z,98850.31
2022-08-07T00:45:29.280Z,98846.28
2022-08-07T00:47:06.549Z,98845.25
2022-08-07T00:48:51.727Z,98851.75
2022-08-07T00:50:46.096Z,98837.97
2022-08-07T00:52:20.229Z,98843.09
2022-08-07T00:53:55.213Z,98848.47
2022-08-07T00:56:00.829Z,98842.53
2022-08-07T00:57:25.778Z,98848.72
2022-08-07T00:59:00.220Z,98858.06
2022-08-07T01:00:33.637Z,98847.56
2022-08-07T01:02:13.947Z,98846.88
2022-08-07T01:03:56.693Z,98848.69
2022-08-07T01:05:36.539Z,98857.16
2022-08-07T01:07:11.854Z,98852.63
2022-08-07T01:08:52.948Z,98857.16
2022-08-07T01:10:27.750Z,98859.16
2022-08-07T01:12:23.837Z,98856.78
2022-08-07T01:13:55.925Z,98857.06
2022-08-07T01:15:35.846Z,98852.22
2022-08-07T01:17:23.970Z,98856.28
2022-08-07T01:18:58.428Z,98859.81
2022-08-07T01:20:43.430Z,98866.91
2022-08-07T01:22:22.909Z,98861.25
2022-08-07T01:24:03.683Z,98862.72
2022-08-07T01:25:54.893Z,98865.13
2022-08-07T01:27:32.419Z,98862.72
2022-08-07T01:29:07.711Z,98859.03
2022-08-07T01:30:43.196Z,98866.13
2022-08-07T01:32:19.757Z,98866.13
2022-08-07T01:33:57.781Z,98868.34
2022-08-07T01:35:37.009Z,98864.94
2022-08-07T01:37:33.808Z,98870.84
2022-08-07T01:39:10.223Z,98872.56
2022-08-07T01:40:49.183Z,98872.81
2022-08-07T01:42:39.338Z,98875.63
2022-08-07T01:44:21.086Z,98878.56
2022-08-07T01:45:58.718Z,98872.75
2022-08-07T01:48:19.182Z,98872.38
2022-08-07T01:49:28.251Z,98873.22
2022-08-07T01:52:01.341Z,98877.75
2022-08-07T01:53:08.816Z,98883.13
2022-08-07T01:54:47.993Z,98888.03
2022-08-07T01:56:29.080Z,98889.06
2022-08-07T01:58:27.359Z,98890.41
2022-08-07T02:00:12.892Z,98892.72
2022-08-07T02:02:01.655Z,98906.00
2022-08-07T02:03:50.867Z,98892.44
2022-08-07T02:05:42.933Z,98894.03
2022-08-07T02:07:44.997Z,98888.78
2022-08-07T02:09:53.299Z,98884.03
2022-08-07T02:11:30.922Z,98887.84
2022-08-07T02:13:13.575Z,98882.47
2022-08-07T02:15:00.651Z,98887.84
2022-08-07T02:16:40.976Z,98887.72
2022-08-07T02:18:17.767Z,98888.81
2022-08-07T02:20:04.819Z,98885.88
2022-08-07T02:21:56.256Z,98880.22
2022-08-07T02:23:35.959Z,98882.19
2022-08-07T02:25:13.951Z,98888.94
2022-08-07T02:27:02.847Z,98887.88
2022-08-07T02:28:40.177Z,98890.09
2022-08-07T02:30:15.161Z,98887.41
2022-08-07T02:31:49.707Z,98892.53
2022-08-07T02:33:32.815Z,98890.09
2022-08-07T02:35:20.238Z,98892.53
2022-08-07T02:36:58.037Z,98893.63
2022-08-07T02:38:36.933Z,98895.84
2022-08-07T02:40:31.093Z,98888.44
2022-08-07T02:42:10.166Z,98893.56
2022-08-07T02:43:51.535Z,98898.47
2022-08-07T02:45:58.769Z,98901.41
2022-08-07T02:47:23.987Z,98900.69
2022-08-07T02:49:08.687Z,98910.59
2022-08-07T02:51:07.213Z,98904.00
2022-08-07T02:53:06.402Z,98913.38
2022-08-07T02:54:43.383Z,98907.66
2022-08-07T02:56:21.756Z,98920.84
2022-08-07T02:57:59.939Z,98922.16
2022-08-07T02:59:34.507Z,98917.75
2022-08-07T03:01:18.809Z,98909.00
2022-08-07T03:03:13.437Z,98907.56
2022-08-07T03:04:54.153Z,98918.41
2022-08-07T03:06:33.330Z,98927.69
2022-08-07T03:08:10.711Z,98922.44
2022-08-07T03:09:52.640Z,98923.16
2022-08-07T03:11:28.549Z,98915.84
2022-08-07T03:13:07.777Z,98931.72
2022-08-07T03:14:43.372Z,98920.00
2022-08-07T03:16:27.775Z,98922.19
2022-08-07T03:18:04.039Z,98925.59
2022-08-07T03:19:37.435Z,98918.53
2022-08-07T03:21:14.428Z,98925.25
2022-08-07T03:22:55.156Z,98924.13
2022-08-07T03:24:29.011Z,98925.84
2022-08-07T03:26:08.146Z,98932.06
2022-08-07T03:27:59.712Z,98919.25
2022-08-07T03:29:49.549Z,98920.00
2022-08-07T03:31:42.688Z,98917.31
2022-08-07T03:33:20.356Z,98929.00
2022-08-07T03:35:16.997Z,98928.16
2022-08-07T03:36:53.692Z,98934.78
2022-08-07T03:38:29.919Z,98932.94
2022-08-07T03:40:15.542Z,98941.00
2022-08-07T03:41:50.910Z,98941.13
2022-08-07T03:43:32.292Z,98943.41
2022-08-07T03:45:09.454Z,98944.41
2022-08-07T03:47:13.123Z,98947.84
2022-08-07T03:49:02.243Z,98943.06
2022-08-07T03:50:32.191Z,98938.19
2022-08-07T03:52:15.947Z,98948.53
2022-08-07T03:54:33.470Z,98939.00
2022-08-07T03:55:57.680Z,98945.56
2022-08-07T03:58:32.613Z,98939.19
2022-08-07T03:59:46.729Z,98938.19
2022-08-07T04:01:45.202Z,98943.03
2022-08-07T04:03:19.323Z,98944.47
2022-08-07T04:04:57.166Z,98939.22
2022-08-07T04:06:37.722Z,98949.88
2022-08-07T04:08:18.403Z,98946.22
2022-08-07T04:09:54.269Z,98943.13
2022-08-07T04:12:23.874Z,98955.72
2022-08-07T04:13:27.749Z,98955.44
2022-08-07T04:15:04.966Z,98957.16
2022-08-07T04:16:43.041Z,98946.41
2022-08-07T04:19:01.321Z,98946.53
2022-08-07T04:20:25.772Z,98953.03
2022-08-07T04:22:07.833Z,98952.91
2022-08-07T04:24:07.094Z,98958.88
2022-08-07T04:25:43.185Z,98961.31
2022-08-07T04:27:25.257Z,98954.94
2022-08-07T04:29:12.191Z,98960.91
2022-08-07T04:30:57.032Z,98961.25
2022-08-07T04:32:36.081Z,98957.06
2022-08-07T04:34:16.602Z,98952.00
2022-08-07T04:35:53.943Z,98960.25
2022-08-07T04:38:01.160Z,98958.63
2022-08-07T04:39:35.645Z,98962.38
2022-08-07T04:41:18.224Z,98960.72
2022-08-07T04:42:53.752Z,98959.34
2022-08-07T04:44:36.532Z,98965.06
2022-08-07T04:46:51.313Z,98968.94
2022-08-07T04:48:44.755Z,98971.38
2022-08-07T04:50:32.157Z,98964.25
2022-08-07T04:52:29.389Z,98976.75
2022-08-07T04:54:15.676Z,98972.59
2022-08-07T04:58:10.347Z,98979.97
2022-08-07T04:58:11.699Z,98974.25
2022-08-07T05:00:11.431Z,98972.22
2022-08-07T05:01:58.234Z,98982.38
2022-08-07T05:03:59.677Z,98972.25
2022-08-07T05:05:51.877Z,98979.75
2022-08-07T05:07:37.091Z,98974.53
2022-08-07T05:09:43.014Z,98980.13
2022-08-07T05:11:26.315Z,98975.13
2022-08-07T05:14:55.448Z,98983.09
2022-08-07T05:15:28.012Z,98980.97
2022-08-07T05:17:11.970Z,98974.78
2022-08-07T05:18:50.045Z,98977.06
2022-08-07T05:20:28.236Z,98979.59
2022-08-07T05:22:10.649Z,98987.75
2022-08-07T05:23:50.455Z,98975.00
2022-08-07T05:25:26.114Z,98977.84
2022-08-07T05:28:02.040Z,98975.56
2022-08-07T05:29:17.097Z,98980.94
2022-08-07T05:30:52.296Z,98980.91
2022-08-07T05:32:28.198Z,98975.78
2022-08-07T05:34:05.704Z,98978.00
2022-08-07T05:35:47.864Z,98972.69
2022-08-07T05:37:25.332Z,98973.72
2022-08-07T05:40:13.942Z,98977.75
2022-08-07T05:41:14.234Z,98966.22
2022-08-07T05:42:55.786Z,98971.03
2022-08-07T05:44:34.927Z,98957.81
2022-08-07T05:46:09.996Z,98962.91
2022-08-07T05:48:01.218Z,98960.25
2022-08-07T05:49:41.677Z,98961.31
2022-08-07T05:51:17.582Z,98970.59
2022-08-07T05:52:54.640Z,98963.16
2022-08-07T05:54:31.289Z,98960.91
2022-08-07T05:56:29.912Z,98970.13
2022-08-07T05:58:07.272Z,98967.97
2022-08-07T05:59:56.182Z,98968.34
2022-08-07T06:01:36.192Z,98967.19
2022-08-07T06:03:13.612Z,98968.19
2022-08-07T06:04:54.632Z,98971.84
2022-08-07T06:06:29.849Z,98975.31
2022-08-07T06:08:29.631Z,98967.28
2022-08-07T06:10:06.191Z,98971.41
2022-08-07T06:11:45.446Z,98975.78
2022-08-07T06:14:10.583Z,98974.66
2022-08-07T06:15:19.901Z,98966.84
2022-08-07T06:16:56.200Z,98967.34
2022-08-07T06:18:37.829Z,98967.34
2022-08-07T06:20:25.745Z,98968.94
2022-08-07T06:22:15.370Z,98959.03
2022-08-07T06:24:37.792Z,98974.31
2022-08-07T06:25:57.235Z,98970.63
2022-08-07T06:28:00.007Z,98963.06
2022-08-07T06:29:28.793Z,98958.06
2022-08-07T06:31:03.753Z,98966.84
2022-08-07T06:32:38.838Z,98967.75
2022-08-07T06:34:14.052Z,98956.38
2022-08-07T06:36:06.852Z,98961.56
2022-08-07T06:37:46.558Z,98960.84
2022-08-07T06:40:15.684Z,98969.13
2022-08-07T06:42:00.621Z,98962.91
2022-08-07T06:43:21.442Z,98975.34
2022-08-07T06:45:17.981Z,98963.34
2022-08-07T06:47:10.141Z,98963.34
2022-08-07T06:48:45.572Z,98967.53
2022-08-07T06:50:25.996Z,98966.63
2022-08-07T06:52:07.478Z,98963.81
2022-08-07T06:55:29.248Z,98962.78
2022-08-07T06:56:00.451Z,98956.81
2022-08-07T06:57:39.825Z,98962.25
2022-08-07T07:00:11.917Z,98958.34
2022-08-07T07:01:44.036Z,98960.00
2022-08-07T07:03:39.444Z,98953.88
2022-08-07T07:06:03.730Z,98959.75
2022-08-07T07:07:19.182Z,98959.31
2022-08-07T07:09:24.271Z,98958.06
2022-08-07T07:11:14.017Z,98959.75
2022-08-07T07:13:05.004Z,98950.19
2022-08-07T07:14:45.509Z,98963.38
2022-08-07T07:16:23.504Z,98962.84
2022-08-07T07:18:08.752Z,98963.63
2022-08-07T07:19:57.030Z,98958.03
2022-08-07T07:21:40.472Z,98953.75
2022-08-07T07:24:09.390Z,98956.88
2022-08-07T07:26:34.428Z,98963.66
2022-08-07T07:27:24.867Z,98961.69
2022-08-07T07:29:38.464Z,98958.38
2022-08-07T07:31:17.243Z,98955.03
2022-08-07T07:32:59.150Z,98945.63
2022-08-07T07:34:35.933Z,98949.69
2022-08-07T07:36:17.318Z,98956.59
2022-08-07T07:38:02.600Z,98954.59
2022-08-07T07:39:52.462Z,98950.91
2022-08-07T07:42:02.120Z,98955.50
2022-08-07T07:43:27.645Z,98959.00
2022-08-07T07:46:33.374Z,98958.84
2022-08-07T07:47:51.945Z,98952.31
2022-08-07T07:50:31.306Z,98956.44
2022-08-07T07:51:11.833Z,98936.44
2022-08-07T07:52:50.647Z,98942.59
2022-08-07T07:54:25.627Z,98948.16
2022-08-07T07:56:02.403Z,98957.03
2022-08-07T07:57:44.013Z,98952.75
2022-08-07T07:59:52.449Z,98956.50
2022-08-07T08:02:03.150Z,98954.06
2022-08-07T08:04:10.991Z,98950.84
2022-08-07T08:05:17.901Z,98941.56
2022-08-07T08:07:02.601Z,98950.91
2022-08-07T08:08:39.291Z,98929.13
2022-08-07T08:10:35.558Z,98953.19
2022-08-07T08:12:12.123Z,98959.75
2022-08-07T08:13:55.149Z,98951.44
2022-08-07T08:15:57.476Z,98952.16
2022-08-07T08:17:56.372Z,98949.47
2022-08-07T08:20:18.119Z,98949.75
2022-08-07T08:22:00.584Z,98942.81
2022-08-07T08:23:53.594Z,98935.19
2022-08-07T08:25:49.223Z,98946.31
2022-08-07T08:27:33.482Z,98951.56
2022-08-07T08:29:08.544Z,98941.13
2022-08-07T08:30:51.050Z,98948.38
2022-08-07T08:32:39.498Z,98950.06
2022-08-07T08:34:26.627Z,98934.81
2022-08-07T08:36:01.715Z,98955.25
2022-08-07T08:38:00.993Z,98950.22
2022-08-07T08:39:39.597Z,98952.34
2022-08-07T08:41:57.556Z,98943.06
2022-08-07T08:43:55.858Z,98940.97
2022-08-07T08:45:59.399Z,98942.66
2022-08-07T08:47:51.945Z,98942.66
2022-08-07T08:49:46.555Z,98936.75
2022-08-07T08:51:49.527Z,98935.66
2022-08-07T08:53:34.978Z,98951.81
2022-08-07T08:55:20.832Z,98942.50
2022-08-07T08:57:22.345Z,98945.56
2022-08-07T08:59:06.312Z,98934.72
2022-08-07T09:00:48.693Z,98932.13
2022-08-07T09:02:36.727Z,98940.56
2022-08-07T09:04:25.664Z,98930.06
2022-08-07T09:06:05.490Z,98932.44
2022-08-07T09:07:57.843Z,98934.94
2022-08-07T09:09:47.657Z,98932.91
2022-08-07T09:11:50.751Z,98924.84
2022-08-07T09:13:36.795Z,98932.00
2022-08-07T09:16:25.687Z,98931.84
2022-08-07T09:17:58.956Z,98929.84
2022-08-07T09:19:51.920Z,98924.50
2022-08-07T09:22:22.887Z,98935.94
2022-08-07T09:24:30.992Z,98930.84
2022-08-07T09:25:53.472Z,98934.13
2022-08-07T09:27:54.529Z,98924.81
2022-08-07T09:30:04.092Z,98930.28
2022-08-07T09:31:48.518Z,98927.94
2022-08-07T09:33:52.652Z,98920.19
2022-08-07T09:36:01.068Z,98928.06
2022-08-07T09:37:53.755Z,98927.53
2022-08-07T09:39:54.598Z,98924.97
2022-08-07T09:41:43.245Z,98920.88
2022-08-07T09:44:03.092Z,98925.59
2022-08-07T09:47:25.812Z,98928.50
2022-08-07T09:47:59.930Z,98922.47
2022-08-07T09:50:00.450Z,98921.41
2022-08-07T09:52:16.614Z,98924.66
2022-08-07T09:54:00.607Z,98920.84
2022-08-07T09:56:03.862Z,98915.94
2022-08-07T09:58:10.315Z,98916.94
2022-08-07T10:00:14.805Z,98917.78
2022-08-07T10:02:06.193Z,98911.28
2022-08-07T10:04:16.020Z,98911.94
2022-08-07T10:06:24.350Z,98916.19
2022-08-07T10:08:11.940Z,98921.25
2022-08-07T10:10:02.616Z,98918.75
2022-08-07T10:12:03.336Z,98913.84
2022-08-07T10:14:02.156Z,98910.97
2022-08-07T10:15:56.134Z,98913.56
2022-08-07T10:18:01.001Z,98906.94
2022-08-07T10:20:04.857Z,98905.91
2022-08-07T10:22:12.366Z,98900.84
2022-08-07T10:24:08.438Z,98901.47
2022-08-07T10:26:00.574Z,98890.34
2022-08-07T10:27:51.458Z,98896.88
2022-08-07T10:29:54.099Z,98898.81
2022-08-07T10:31:55.034Z,98901.47
2022-08-07T10:34:06.629Z,98889.47
2022-08-07T10:36:05.629Z,98890.50
2022-08-07T10:38:21.723Z,98900.00
2022-08-07T10:40:08.961Z,98901.13
2022-08-07T10:42:00.308Z,98897.38
2022-08-07T10:43:49.672Z,98892.09
2022-08-07T10:45:45.033Z,98883.88
2022-08-07T10:47:52.592Z,98883.88
2022-08-07T10:49:49.425Z,98880.91
2022-08-07T10:51:39.583Z,98880.91
2022-08-07T10:53:41.989Z,98875.84
2022-08-07T10:55:37.064Z,98893.19
2022-08-07T10:57:33.952Z,98869.97
2022-08-07T10:59:21.229Z,98881.72
2022-08-07T11:01:12.388Z,98871.47
2022-08-07T11:03:03.263Z,98866.38
2022-08-07T11:04:57.605Z,98861.75
2022-08-07T11:06:42.237Z,98863.84
2022-08-07T11:08:29.252Z,98871.44
2022-08-07T11:10:13.313Z,98873.19
2022-08-07T11:11:54.804Z,98865.00
2022-08-07T11:14:45.761Z,98853.63
2022-08-07T11:15:37.091Z,98864.56
2022-08-07T11:17:23.174Z,98867.97
2022-08-07T11:19:21.733Z,98860.34
2022-08-07T11:21:07.567Z,98865.81
2022-08-07T11:22:56.938Z,98869.81
2022-08-07T11:24:38.978Z,98861.59
2022-08-07T11:26:27.891Z,98872.19
2022-08-07T11:28:08.165Z,98861.34
2022-08-07T11:29:54.120Z,98857.41
2022-08-07T11:31:54.891Z,98850.97
2022-08-07T11:33:54.331Z,98857.31
2022-08-07T11:36:00.451Z,98860.75
2022-08-07T11:38:10.192Z,98846.78
2022-08-07T11:40:00.113Z,98850.56
2022-08-07T11:42:01.714Z,98828.00
2022-08-07T11:44:11.485Z,98825.69
2022-08-07T11:45:53.685Z,98814.69
2022-08-07T11:47:55.913Z,98819.97
2022-08-07T11:50:30.530Z,98818.72
2022-08-07T11:52:14.681Z,98829.06
2022-08-07T11:54:03.140Z,98829.72
2022-08-07T11:56:25.235Z,98827.16
2022-08-07T11:58:13.262Z,98819.31
2022-08-07T12:00:11.472Z,98814.69
2022-08-07T12:02:02.115Z,98816.56
2022-08-07T12:03:54.693Z,98810.88
2022-08-07T12:05:47.223Z,98818.19
2022-08-07T12:07:27.260Z,98818.03
2022-08-07T12:09:16.126Z,98815.72
2022-08-07T12:11:08.342Z,98822.28
2022-08-07T12:12:56.255Z,98819.78
2022-08-07T12:14:35.959Z,98821.03
2022-08-07T12:16:29.877Z,98818.53
2022-08-07T12:18:11.211Z,98810.09
2022-08-07T12:20:02.602Z,98807.97
2022-08-07T12:22:35.802Z,98803.97
2022-08-07T12:24:05.632Z,98814.09
2022-08-07T12:26:02.822Z,98810.09
2022-08-07T12:28:08.516Z,98820.22
2022-08-07T12:29:51.691Z,98825.91
2022-08-07T12:32:02.236Z,98810.09
2022-08-07T12:34:01.298Z,98818.50
2022-08-07T12:35:36.286Z,98812.41
2022-08-07T12:37:22.914Z,98817.91
2022-08-07T12:38:57.985Z,98801.63
2022-08-07T12:40:50.835Z,98815.13
2022-08-07T12:42:31.846Z,98809.22
2022-08-07T12:44:12.897Z,98807.53
2022-08-07T12:45:59.076Z,98802.41
2022-08-07T12:47:44.276Z,98804.50
2022-08-07T12:49:44.682Z,98816.66
2022-08-07T12:51:23.415Z,98820.41
2022-08-07T12:53:17.628Z,98817.47
2022-08-07T12:55:05.643Z,98809.91
2022-08-07T12:56:50.963Z,98817.88
2022-08-07T12:58:35.131Z,98808.38
2022-08-07T13:00:16.432Z,98805.06
2022-08-07T13:02:18.631Z,98794.75
2022-08-07T13:04:04.639Z,98796.06
2022-08-07T13:06:01.914Z,98800.97
2022-08-07T13:08:18.851Z,98792.78
2022-08-07T13:10:29.378Z,98808.56
2022-08-07T13:12:15.133Z,98790.03
2022-08-07T13:13:59.512Z,98798.03
2022-08-07T13:15:42.958Z,98780.13
2022-08-07T13:17:21.869Z,98785.59
2022-08-07T13:19:45.906Z,98784.53
2022-08-07T13:21:50.317Z,98792.34
2022-08-07T13:24:00.978Z,98779.06
2022-08-07T13:25:31.879Z,98777.50
2022-08-07T13:27:13.343Z,98780.25
2022-08-07T13:28:52.446Z,98784.06
2022-08-07T13:30:39.895Z,98773.72
2022-08-07T13:32:32.581Z,98783.03
2022-08-07T13:34:34.442Z,98778.44
2022-08-07T13:36:17.397Z,98780.72
2022-08-07T13:37:58.971Z,98796.97
2022-08-07T13:40:33.418Z,98791.88
2022-08-07T13:41:42.365Z,98805.38
2022-08-07T13:43:22.111Z,98796.47
2022-08-07T13:46:06.683Z,98810.38
2022-08-07T13:46:54.769Z,98830.50
2022-08-07T13:48:34.333Z,98856.78
2022-08-07T13:50:34.004Z,98859.84
2022-08-07T13:52:31.485Z,98852.06
2022-08-07T13:54:06.395Z,98844.66
2022-08-07T13:55:54.285Z,98837.16
2022-08-07T13:57:37.592Z,98838.63
2022-08-07T13:59:16.400Z,98843.38
2022-08-07T14:00:54.272Z,98846.69
2022-08-07T14:02:45.772Z,98837.22
2022-08-07T14:04:29.965Z,98841.94
2022-08-07T14:06:11.551Z,98848.38
2022-08-07T14:07:59.343Z,98853.47
2022-08-07T14:10:12.128Z,98846.34
2022-08-07T14:11:53.767Z,98855.88
2022-08-07T14:13:38.983Z,98844.34
2022-08-07T14:15:31.877Z,98853.16
2022-08-07T14:17:32.223Z,98848.88
2022-08-07T14:20:41.229Z,98849.75
2022-08-07T14:22:00.640Z,98850.06
2022-08-07T14:23:31.351Z,98848.63
2022-08-07T14:25:16.991Z,98840.97
2022-08-07T14:26:53.735Z,98844.47
2022-08-07T14:28:55.769Z,98841.66
2022-08-07T14:30:32.999Z,98840.59
2022-08-07T14:32:09.480Z,98833.44
2022-08-07T14:33:47.652Z,98840.94
2022-08-07T14:35:43.002Z,98842.97
2022-08-07T14:37:23.720Z,98846.03
2022-08-07T14:39:12.472Z,98839.59
2022-08-07T14:41:12.399Z,98850.50
2022-08-07T14:43:01.008Z,98849.81
2022-08-07T14:44:54.136Z,98841.66
2022-08-07T14:46:34.073Z,98843.44
2022-08-07T14:48:10.668Z,98843.13
2022-08-07T14:49:57.338Z,98851.66
2022-08-07T14:52:04.865Z,98847.25
2022-08-07T14:54:08.704Z,98847.63
2022-08-07T14:55:33.503Z,98844.25
2022-08-07T14:57:11.021Z,98850.00
2022-08-07T14:58:55.313Z,98852.53
2022-08-07T15:00:32.758Z,98857.75
2022-08-07T15:04:09.011Z,98853.66
2022-08-07T15:05:54.768Z,98853.03
2022-08-07T15:07:51.188Z,98854.09
2022-08-07T15:11:53.172Z,98847.25
2022-08-07T15:13:25.496Z,98855.78
2022-08-07T15:15:21.165Z,98865.38
2022-08-07T15:17:01.157Z,98891.88
2022-08-07T15:18:41.600Z,98902.03
2022-08-07T15:20:33.865Z,98914.19
2022-08-07T15:22:22.176Z,98928.19
2022-08-07T15:25:16.169Z,98925.22
2022-08-07T15:26:09.199Z,98913.69
2022-08-07T15:28:14.106Z,98904.84
2022-08-07T15:32:01.904Z,98928.66
2022-08-07T15:33:33.982Z,98922.44
2022-08-07T15:35:16.880Z,98915.81
2022-08-07T15:37:03.371Z,98907.34
2022-08-07T15:38:59.335Z,98912.84
2022-08-07T15:40:37.038Z,98904.69
2022-08-07T15:42:46.181Z,98907.09
2022-08-07T15:44:24.086Z,98911.34
2022-08-07T15:46:06.893Z,98906.78
2022-08-07T15:50:05.931Z,98915.28
2022-08-07T15:53:51.639Z,98919.00
2022-08-07T15:55:54.016Z,98912.72
2022-08-07T15:57:39.794Z,98909.47
2022-08-07T15:59:39.523Z,98915.44
2022-08-07T16:01:20.267Z,98904.91
2022-08-07T16:02:56.969Z,98906.09
2022-08-07T16:04:34.393Z,98907.50
2022-08-07T16:06:09.660Z,98914.91
2022-08-07T16:08:30.353Z,98921.06
2022-08-07T16:09:52.170Z,98928.38
2022-08-07T16:11:41.490Z,98935.34
2022-08-07T16:14:02.833Z,98922.97
2022-08-07T16:15:57.444Z,98925.31
2022-08-07T16:18:00.890Z,98924.97
2022-08-07T16:20:07.321Z,98938.88
2022-08-07T16:22:02.387Z,98934.63
2022-08-07T16:23:58.548Z,98932.56
2022-08-07T16:25:53.997Z,98942.94
2022-08-07T16:27:40.417Z,98948.03
2022-08-07T16:30:11.001Z,98950.75
2022-08-07T16:31:51.005Z,98953.25
2022-08-07T16:34:02.520Z,98951.25
2022-08-07T16:35:51.858Z,98957.69
2022-08-07T16:38:50.380Z,98960.03
2022-08-07T16:41:02.104Z,98948.84
2022-08-07T16:42:55.813Z,98951.25
2022-08-07T16:45:15.121Z,98950.22
2022-08-07T16:47:04.433Z,98942.56
2022-08-07T16:50:28.507Z,98952.78
2022-08-07T16:52:01.232Z,98951.59
2022-08-07T16:54:02.102Z,98953.31
2022-08-07T16:55:43.789Z,98951.25
2022-08-07T16:58:01.648Z,98955.81
2022-08-07T16:59:46.845Z,98957.72
2022-08-07T17:01:35.343Z,98960.09
2022-08-07T17:03:58.056Z,98960.91
2022-08-07T17:06:19.849Z,98961.09
2022-08-07T17:07:55.248Z,98963.47
2022-08-07T17:10:06.284Z,98959.41
2022-08-07T17:12:01.442Z,98961.41
2022-08-07T17:14:18.277Z,98962.09
2022-08-07T17:15:44.459Z,98955.81
2022-08-07T17:17:46.020Z,98964.44
2022-08-07T17:20:01.780Z,98967.84
2022-08-07T17:21:50.799Z,98972.91
2022-08-07T17:23:41.587Z,98971.84
2022-08-07T17:25:19.991Z,98975.09
2022-08-07T17:27:24.127Z,98975.19
2022-08-07T17:30:12.734Z,98961.56
2022-08-07T17:31:15.593Z,98962.78
2022-08-07T17:33:05.532Z,98975.56
2022-08-07T17:35:49.640Z,98977.22
2022-08-07T17:37:09.111Z,98979.34
2022-08-07T17:38:55.341Z,98989.25
2022-08-07T17:40:36.376Z,98997.22
2022-08-07T17:42:18.067Z,99002.25
2022-08-07T17:44:03.029Z,98997.66
2022-08-07T17:45:43.370Z,99002.69
2022-08-07T17:47:42.092Z,98995.38
2022-08-07T17:49:24.038Z,99016.31
2022-08-07T17:51:05.600Z,99010.69
2022-08-07T17:52:42.053Z,99022.78
2022-08-07T17:54:29.593Z,99022.31
2022-08-07T17:56:26.120Z,99026.88
2022-08-07T17:58:08.347Z,99033.09
2022-08-07T17:59:50.641Z,99028.16
2022-08-07T18:01:36.249Z,99041.53
2022-08-07T18:03:19.390Z,99044.72
2022-08-07T18:05:01.429Z,99045.38
2022-08-07T18:07:20.397Z,99045.38
2022-08-07T18:09:05.706Z,99058.34
2022-08-07T18:12:06.953Z,99051.09
2022-08-07T18:13:09.856Z,99067.03
2022-08-07T18:14:51.055Z,99066.16
2022-08-07T18:16:35.024Z,99065.00
2022-08-07T18:18:46.130Z,99075.00
2022-08-07T18:21:11.946Z,99077.16
2022-08-07T18:22:15.218Z,99078.19
2022-08-07T18:24:09.200Z,99080.16
2022-08-07T18:25:49.448Z,99091.19
2022-08-07T18:28:04.575Z,99087.41
2022-08-07T18:30:05.802Z,99084.84
2022-08-07T18:31:53.630Z,99086.84
2022-08-07T18:34:03.117Z,99092.88
2022-08-07T18:35:50.320Z,99101.47
2022-08-07T18:38:55.036Z,99096.59
2022-08-07T18:40:08.524Z,99099.75
2022-08-07T18:42:04.890Z,99099.75
2022-08-07T18:43:57.657Z,99099.47
2022-08-07T18:46:24.552Z,99109.63
2022-08-07T18:47:49.483Z,99109.03
2022-08-07T18:50:34.974Z,99114.31
2022-08-07T18:52:51.787Z,99113.63
2022-08-07T18:54:05.142Z,99112.91
2022-08-07T18:56:08.380Z,99121.75
2022-08-07T18:58:00.724Z,99123.44
2022-08-07T18:59:59.410Z,99122.88
2022-08-07T19:02:18.305Z,99127.75
2022-08-07T19:03:49.489Z,99133.47
2022-08-07T19:06:01.591Z,99138.50
2022-08-07T19:07:35.451Z,99133.09
2022-08-07T19:09:57.454Z,99134.78
2022-08-07T19:11:34.791Z,99139.50
2022-08-07T19:13:21.880Z,99144.78
2022-08-07T19:16:02.404Z,99149.53
2022-08-07T19:17:55.634Z,99144.41
2022-08-07T19:19:19.873Z,99144.16
2022-08-07T19:21:09.047Z,99147.69
2022-08-07T19:23:18.266Z,99157.53
2022-08-07T19:24:54.597Z,99148.41
2022-08-07T19:27:10.303Z,99152.13
2022-08-07T19:30:54.166Z,99147.00
2022-08-07T19:31:03.117Z,99156.72
2022-08-07T19:32:26.484Z,99155.31
2022-08-07T19:34:05.609Z,99155.88
2022-08-07T19:35:43.526Z,99159.16
2022-08-07T19:37:22.253Z,99163.84
2022-08-07T19:39:00.504Z,99164.56
2022-08-07T19:40:50.086Z,99164.41
2022-08-07T19:42:29.500Z,99175.84
2022-08-07T19:44:04.826Z,99176.13
2022-08-07T19:46:07.192Z,99181.53
2022-08-07T19:47:49.191Z,99172.69
2022-08-07T19:49:56.502Z,99174.44
2022-08-07T19:51:51.056Z,99173.00
2022-08-07T19:54:34.645Z,99180.38
2022-08-07T19:55:19.688Z,99182.25
2022-08-07T19:58:00.841Z,99179.00
2022-08-07T19:58:58.221Z,99188.66
2022-08-07T20:00:35.772Z,99188.09
2022-08-07T20:02:18.955Z,99188.38
2022-08-07T20:03:57.134Z,99193.06
2022-08-07T20:05:59.959Z,99192.09
2022-08-07T20:07:46.364Z,99185.56
2022-08-07T20:10:35.307Z,99196.66
2022-08-07T20:11:34.089Z,99191.81
2022-08-07T20:13:27.304Z,99196.94
2022-08-07T20:15:18.946Z,99195.22
2022-08-07T20:16:58.139Z,99191.13
2022-08-07T20:18:34.548Z,99187.81
2022-08-07T20:20:09.755Z,99200.91
2022-08-07T20:21:47.181Z,99201.59
2022-08-07T20:23:41.599Z,99196.31
2022-08-07T20:25:19.720Z,99205.13
2022-08-07T20:26:57.307Z,99198.28
2022-08-07T20:28:37.036Z,99190.72
2022-08-07T20:30:13.592Z,99188.25
2022-08-07T20:31:56.570Z,99207.44
2022-08-07T20:33:37.539Z,99205.31
2022-08-07T20:35:26.044Z,99203.84
2022-08-07T20:37:02.144Z,99211.47
2022-08-07T20:38:36.990Z,99205.50
2022-08-07T20:40:34.538Z,99204.91
2022-08-07T20:42:12.866Z,99210.03
2022-08-07T20:43:48.485Z,99213.72
2022-08-07T20:46:28.667Z,99206.75
2022-08-07T20:47:55.562Z,99211.44
2022-08-07T20:49:59.987Z,99210.25
2022-08-07T20:51:26.006Z,99216.00
2022-08-07T20:53:02.256Z,99221.09
2022-08-07T20:54:37.955Z,99217.44
2022-08-07T20:56:26.016Z,99226.31
2022-08-07T20:58:08.874Z,99219.47
2022-08-07T21:00:07.201Z,99218.78
2022-08-07T21:01:45.687Z,99228.44
2022-08-07T21:03:29.335Z,99220.47
2022-08-07T21:05:04.488Z,99219.75
2022-08-07T21:06:53.397Z,99225.88
2022-08-07T21:08:36.573Z,99232.97
2022-08-07T21:10:14.933Z,99229.28
2022-08-07T21:12:03.678Z,99230.00
2022-08-07T21:13:57.665Z,99226.44
2022-08-07T21:15:47.595Z,99223.88
2022-08-07T21:18:17.399Z,99227.31
2022-08-07T21:19:19.936Z,99234.81
2022-08-07T21:21:06.508Z,99229.84
2022-08-07T21:22:44.993Z,99231.97
2022-08-07T21:24:47.919Z,99232.72
2022-08-07T21:26:35.396Z,99236.41
2022-08-07T21:28:18.876Z,99244.03
2022-08-07T21:30:11.202Z,99237.13
2022-08-07T21:32:46.660Z,99238.28